• Join FlightAware (Why Join?)
  • Login
  • US Flag 
07:33AM EST


 

Airport Tracker/Info


-or-


 

Live Flight TrackerFlight Track Log ✈ AAL667 ✈ 16-Aug-2013 ✈ KATL - KDFW

Flight Track Log - Related Links

Times and Time Zones

All times are in EDT time to prevent confusion due to time zone crossing. See the AAL667 flight status page for this flight to view local times or setup timezone preferences in your user account.

Time Position Orientation Groundspeed Altitude Reporting Facility
EDT Latitude Longitude Course Direction KTS MPH feet Rate Location/Type
08:29PM 33.6500 -84.3500 270° West 211 243 3,800  Level Atlanta TRACON
08:30PM 33.6833 -84.2833 59° Northeast 272 313 6,600 2,220 Climbing Atlanta TRACON
08:32PM 33.8106 -84.3289 343° North 268 308 10,400 2,160 Climbing Atlanta Center
08:33PM 33.8000 -84.6230 270° West  Level FlightAware Approximate
08:33PM 33.8103 -84.4314 270° West 259 298 13,000  Level Atlanta Center
08:34PM 33.8001 -84.7574 270° West  Level FlightAware Approximate
08:34PM 33.8097 -84.5614 270° West 322 371 14,100  Level Atlanta Center
08:35PM 33.8114 -84.6714 271° West 364 419 15,800 2,160 Climbing Atlanta Center
08:36PM 33.8108 -84.7939 270° West 364 419 18,500 2,880 Climbing Atlanta Center
08:37PM 33.8056 -84.9314 267° West 364 419 21,600 2,700 Climbing Atlanta Center
08:38PM 33.7881 -85.0561 260° West 374 430 24,000 2,040 Climbing Atlanta Center
08:39PM 33.7722 -85.1708 261° West 379 436 25,700 1,740 Climbing Atlanta Center
08:40PM 33.7794 -85.3033 274° West 392 451 27,500 1,620 Climbing Atlanta Center
08:41PM 33.8050 -85.4414 283° West 413 475 29,000 1,620 Climbing Atlanta Center
08:42PM 33.8283 -85.5817 281° West 423 487 30,800 1,500 Climbing Atlanta Center
08:43PM 33.8622 -85.7150 287° West 423 487 32,000 600 Climbing Atlanta Center
08:44PM 33.9039 -85.8558 290° West 430 495 32,000  Level Atlanta Center
08:45PM 33.9478 -85.9919 291° West 424 488 32,000  Level Atlanta Center
08:46PM 33.9914 -86.1308 291° West 435 501 32,000  Level Atlanta Center
08:47PM 34.0286 -86.2697 288° West 440 506 32,000  Level Atlanta Center
08:48PM 34.0678 -86.4086 289° West 440 506 32,000  Level Atlanta Center
08:49PM 34.1069 -86.5450 289° West 440 506 32,000  Level Atlanta Center
08:51PM 34.1664 -86.7600 289° West 430 495 32,000  Level Memphis Center
08:52PM 34.2061 -86.9089 288° West 437 503 32,000  Level Memphis Center
08:53PM 34.2475 -87.0506 290° West 437 503 32,000  Level Memphis Center
08:54PM 34.2867 -87.1947 288° West 437 503 32,000  Level Memphis Center
08:55PM 34.3256 -87.3242 290° West 419 482 32,000  Level Memphis Center
08:56PM 34.3600 -87.4611 287° West 419 482 32,000  Level Memphis Center
08:57PM 34.3986 -87.5983 289° West 424 488 32,000  Level Memphis Center
08:58PM 34.4369 -87.7331 289° West 424 488 32,000  Level Memphis Center
08:59PM 34.4689 -87.8656 286° West 414 476 32,000  Level Memphis Center
09:00PM 34.5072 -88.0006 289° West 414 476 32,000  Level Memphis Center
09:01PM 34.5386 -88.1183 288° West 414 476 32,000  Level Memphis Center
09:02PM 34.5767 -88.2711 287° West 429 494 32,000  Level Memphis Center
09:03PM 34.6122 -88.4064 288° West 429 494 32,000  Level Memphis Center
09:04PM 34.6431 -88.5219 288° West 418 481 32,000  Level Memphis Center
09:05PM 34.6786 -88.6550 288° West 413 475 32,000  Level Memphis Center
09:06PM 34.7117 -88.7908 287° West 413 475 32,000  Level Memphis Center
09:07PM 34.7486 -88.9267 288° West 425 489 32,000  Level Memphis Center
09:08PM 34.7878 -89.0750 288° West 425 489 32,000  Level Memphis Center
09:09PM 34.8225 -89.2111 287° West 420 483 32,000  Level Memphis Center
09:10PM 34.8572 -89.3472 287° West 420 483 32,000  Level Memphis Center
09:11PM 34.8917 -89.4836 287° West 420 483 32,000  Level Memphis Center
09:12PM 34.9300 -89.6175 289° West 420 483 32,000 180 Level Memphis Center
09:13PM 34.9661 -89.7592 287° West 425 489 32,400 720 Climbing Memphis Center
09:14PM 35.0003 -89.9008 286° West 436 502 33,500 780 Climbing Memphis Center
09:15PM 35.0153 -90.0350 278° West 426 490 34,000 240 Climbing Memphis Center
09:16PM 34.9925 -90.1694 258° West 407 468 34,000  Level Memphis Center
09:17PM 34.9719 -90.2989 259° West 407 468 34,000  Level Memphis Center
09:18PM 34.9511 -90.4356 260° West 407 468 34,000  Level Memphis Center
09:19PM 34.9319 -90.5647 260° West 401 461 34,000  Level Memphis Center
09:20PM 34.9131 -90.6964 260° West 401 461 34,000  Level Memphis Center
09:21PM 34.8939 -90.8281 260° West 401 461 34,000  Level Memphis Center
09:22PM 34.8725 -90.9569 259° West 401 461 34,000  Level Memphis Center
09:23PM 34.8531 -91.0911 260° West 401 461 34,000  Level Memphis Center
09:24PM 34.8311 -91.2275 259° West 412 474 34,000  Level Memphis Center
09:25PM 34.8136 -91.3461 260° West 412 474 34,000  Level Memphis Center
09:26PM 34.7894 -91.4800 258° West 407 468 34,000  Level Memphis Center
09:27PM 34.7694 -91.6136 260° West 407 468 34,000  Level Memphis Center
09:28PM 34.7472 -91.7447 258° West 407 468 34,000  Level Memphis Center
09:29PM 34.7269 -91.8808 260° West 413 475 34,000  Level Memphis Center
09:30PM 34.7064 -92.0144 259° West 413 475 34,000  Level Memphis Center
09:31PM 34.6794 -92.1628 258° West 413 475 34,000  Level Memphis Center
09:32PM 34.6481 -92.2958 254° West 413 475 34,000  Level Memphis Center
09:33PM 34.6125 -92.4264 252° West 413 475 34,000  Level Memphis Center
09:34PM 34.5769 -92.5592 252° West 418 481 34,000  Level Memphis Center
09:35PM 34.5433 -92.6919 253° West 418 481 34,000  Level Memphis Center
09:36PM 34.5072 -92.8269 252° West 418 481 34,000  Level Memphis Center
09:37PM 34.4714 -92.9544 251° West 418 481 34,000  Level Memphis Center
09:38PM 34.4350 -93.0869 252° West 412 474 34,000  Level Memphis Center
09:39PM 34.4008 -93.2217 253° West 417 480 34,000  Level Memphis Center
09:40PM 34.3644 -93.3514 251° West 417 480 34,000  Level Memphis Center
09:41PM 34.3275 -93.5031 254° West 424 488 34,000  Level Fort Worth Center
09:42PM 34.2897 -93.6356 251° West 424 488 34,000  Level Fort Worth Center
09:43PM 34.2539 -93.7678 252° West 424 488 34,000  Level Fort Worth Center
09:44PM 34.2161 -93.9025 251° West 424 488 34,000  Level Fort Worth Center
09:45PM 34.1800 -94.0344 252° West 424 488 34,000  Level Fort Worth Center
09:46PM 34.1439 -94.1664 252° West 424 488 34,000  Level Fort Worth Center
09:47PM 34.1056 -94.2983 251° West 424 488 34,000  Level Fort Worth Center
09:48PM 34.0669 -94.4275 250° West 424 488 34,000  Level Fort Worth Center
09:49PM 34.0303 -94.5589 251° West 419 482 34,000  Level Fort Worth Center
09:50PM 33.9936 -94.6906 251° West 419 482 34,000  Level Fort Worth Center
09:51PM 33.9528 -94.8269 250° West 426 490 34,000  Level Fort Worth Center
09:52PM 33.9136 -94.9608 251° West 426 490 34,000  Level Fort Worth Center
09:53PM 33.8764 -95.0944 251° West 431 496 34,000 -120 Level Fort Worth Center
09:54PM 33.8372 -95.2281 251° West 431 496 33,800 -900 Descending Fort Worth Center
09:55PM 33.7850 -95.3592 244° Southwest 431 496 32,300 -1,680 Descending Fort Worth Center
09:56PM 33.7372 -95.4903 246° West 431 496 30,500 840 Descending Fort Worth Center
09:57PM 33.6889 -95.6211 246° West 441 507 34,000 -1,980 Climbing Fort Worth Center
09:58PM 33.6386 -95.7594 246° West 446 513 26,600 -4,800 Descending Fort Worth Center
09:59PM 33.5883 -95.8975 246° West 446 513 24,500 -2,160 Descending Fort Worth Center
10:00PM 33.5436 -96.0153 246° West 446 513 22,300 -2,400 Descending Fort Worth Center
10:01PM 33.4908 -96.1581 246° West 435 501 19,700 -2,400 Descending Fort Worth Center
10:02PM 33.4481 -96.2733 246° West 423 487 17,500 -2,520 Descending Fort Worth Center
10:03PM 33.3992 -96.3958 244° Southwest 395 455 14,700 -2,100 Descending Fort Worth Center
10:04PM 33.3333 -96.4833 228° Southwest 320 368 13,200 -1,560 Descending Dallas / Fort Worth TRACON
10:05PM 33.2667 -96.5500 220° Southwest 315 362 11,600 -1,080 Descending Dallas / Fort Worth TRACON
10:06PM 33.2108 -96.6264 229° Southwest 319 367 11,100 -300 Descending Fort Worth Center
10:07PM 33.1486 -96.6989 224° Southwest 319 367 11,100  Level Fort Worth Center
10:08PM 33.0886 -96.7714 225° Southwest 319 367 11,100  Level Fort Worth Center
10:09PM 33.0303 -96.8386 224° Southwest 298 343 11,100 -120 Level Fort Worth Center
10:10PM 32.9833 -96.9000 228° Southwest 268 308 10,900 -780 Descending Dallas / Fort Worth TRACON
10:11PM 32.9000 -96.9000 180° South 265 305 9,600 -1,560 Descending Dallas / Fort Worth TRACON
10:12PM 32.8333 -96.9000 180° South 257 296 7,900 -1,560 Descending Dallas / Fort Worth TRACON
10:13PM 32.7667 -96.9167 192° South 238 274 6,500 -1,560 Descending Dallas / Fort Worth TRACON
10:14PM 32.7000 -96.9333 192° South 220 253 4,800 -1,500 Descending Dallas / Fort Worth TRACON
10:15PM 32.7167 -97.0000 287° West 198 228 3,600 -1,020 Descending Dallas / Fort Worth TRACON
10:16PM 32.7667 -97.0167 344° North 193 222 2,800 -900 Descending Dallas / Fort Worth TRACON
10:17PM 32.8167 -97.0167 360° North 169 194 1,800 -900 Descending Dallas / Fort Worth TRACON
10:18PM 32.8500 -97.0167 360° North 120 138 1,100 -720 Descending Dallas / Fort Worth TRACON